createdAt,value
2023-11-19T00:00:05.579Z,945.33
2023-11-19T00:00:16.606Z,945.30
2023-11-19T00:00:27.642Z,945.36
2023-11-19T00:00:39.640Z,945.29
2023-11-19T00:00:54.491Z,945.32
2023-11-19T00:01:02.625Z,945.37
2023-11-19T00:01:14.692Z,945.23
2023-11-19T00:01:25.799Z,945.34
2023-11-19T00:01:37.732Z,945.36
2023-11-19T00:01:49.789Z,945.34
2023-11-19T00:02:01.765Z,945.32
2023-11-19T00:02:12.694Z,945.34
2023-11-19T00:02:24.635Z,945.34
2023-11-19T00:02:36.721Z,945.31
2023-11-19T00:02:48.803Z,945.28
2023-11-19T00:03:00.708Z,945.28
2023-11-19T00:03:12.651Z,945.27
2023-11-19T00:03:24.614Z,945.26
2023-11-19T00:03:35.616Z,945.30
2023-11-19T00:03:47.531Z,945.23
2023-11-19T00:03:58.720Z,945.16
2023-11-19T00:04:10.662Z,945.16
2023-11-19T00:04:22.686Z,945.22
2023-11-19T00:04:33.684Z,945.24
2023-11-19T00:04:44.636Z,945.21
2023-11-19T00:04:55.681Z,945.24
2023-11-19T00:05:06.647Z,945.21
2023-11-19T00:05:17.600Z,945.22
2023-11-19T00:05:29.583Z,945.18
2023-11-19T00:05:40.597Z,945.26
2023-11-19T00:05:51.596Z,945.17
2023-11-19T00:06:02.600Z,945.18
2023-11-19T00:06:13.599Z,945.19
2023-11-19T00:06:24.597Z,945.21
2023-11-19T00:06:35.594Z,945.22
2023-11-19T00:06:47.613Z,945.18
2023-11-19T00:06:58.618Z,945.18
2023-11-19T00:07:09.684Z,945.22
2023-11-19T00:07:21.669Z,945.23
2023-11-19T00:07:35.538Z,945.14
2023-11-19T00:07:43.776Z,945.22
2023-11-19T00:07:55.598Z,945.24
2023-11-19T00:08:07.585Z,945.24
2023-11-19T00:08:18.575Z,945.34
2023-11-19T00:08:29.558Z,945.24
2023-11-19T00:08:40.545Z,945.25
2023-11-19T00:08:51.628Z,945.22
2023-11-19T00:09:03.596Z,945.22
2023-11-19T00:09:14.587Z,945.21
2023-11-19T00:09:25.583Z,945.20
2023-11-19T00:09:36.582Z,945.26
2023-11-19T00:09:47.584Z,945.24
2023-11-19T00:09:58.582Z,945.28
2023-11-19T00:10:09.613Z,945.25
2023-11-19T00:10:21.590Z,945.20
2023-11-19T00:10:32.615Z,945.22
2023-11-19T00:10:44.584Z,945.21
2023-11-19T00:10:55.580Z,945.19
2023-11-19T00:11:06.578Z,945.29
2023-11-19T00:11:17.578Z,945.26
2023-11-19T00:11:28.599Z,945.34
2023-11-19T00:11:39.597Z,945.28
2023-11-19T00:12:02.616Z,945.24
2023-11-19T00:12:13.602Z,945.19
2023-11-19T00:12:24.603Z,945.26
2023-11-19T00:12:36.618Z,945.23
2023-11-19T00:12:48.608Z,945.18
2023-11-19T00:12:59.626Z,945.22
2023-11-19T00:13:11.688Z,945.24
2023-11-19T00:13:23.619Z,945.16
2023-11-19T00:13:35.584Z,945.22
2023-11-19T00:13:46.600Z,945.18
2023-11-19T00:13:57.601Z,945.18
2023-11-19T00:14:08.596Z,945.15
2023-11-19T00:14:19.600Z,945.24
2023-11-19T00:14:30.602Z,945.24
2023-11-19T00:14:41.600Z,945.22
2023-11-19T00:14:53.582Z,945.18
2023-11-19T00:15:04.576Z,945.16
2023-11-19T00:15:15.602Z,945.23
2023-11-19T00:15:26.600Z,945.23
2023-11-19T00:15:37.588Z,945.22
2023-11-19T00:15:48.701Z,945.17
2023-11-19T00:15:59.615Z,945.14
2023-11-19T00:16:11.596Z,945.15
2023-11-19T00:16:22.623Z,945.10
2023-11-19T00:16:33.571Z,945.11
2023-11-19T00:16:44.555Z,945.10
2023-11-19T00:16:55.553Z,944.91
2023-11-19T00:17:06.554Z,945.10
2023-11-19T00:17:17.645Z,945.11
2023-11-19T00:17:29.761Z,945.11
2023-11-19T00:17:42.004Z,945.10
2023-11-19T00:17:53.605Z,945.07
2023-11-19T00:18:04.655Z,945.02
2023-11-19T00:18:15.669Z,945.02
2023-11-19T00:18:27.661Z,944.97
2023-11-19T00:18:38.605Z,945.07
2023-11-19T00:18:50.685Z,945.05
2023-11-19T00:19:02.653Z,944.96
2023-11-19T00:19:13.576Z,945.01
2023-11-19T00:19:24.608Z,945.03
2023-11-19T00:19:36.599Z,945.06
2023-11-19T00:19:47.592Z,945.00
2023-11-19T00:19:59.598Z,945.03
2023-11-19T00:20:10.595Z,945.02
2023-11-19T00:20:21.606Z,945.06
2023-11-19T00:20:32.594Z,945.13
2023-11-19T00:20:43.606Z,945.05
2023-11-19T00:20:54.597Z,945.13
2023-11-19T00:21:05.595Z,945.06
2023-11-19T00:21:17.596Z,945.07
2023-11-19T00:21:28.584Z,945.04
2023-11-19T00:21:39.588Z,945.01
2023-11-19T00:21:50.619Z,944.83
2023-11-19T00:22:02.618Z,944.92
2023-11-19T00:22:14.617Z,944.97
2023-11-19T00:22:26.617Z,944.89
2023-11-19T00:22:49.050Z,944.95
2023-11-19T00:22:51.583Z,944.91
2023-11-19T00:23:01.609Z,944.94
2023-11-19T00:23:12.610Z,944.95
2023-11-19T00:23:23.601Z,944.86
2023-11-19T00:23:34.601Z,944.92
2023-11-19T00:23:45.601Z,944.97
2023-11-19T00:23:56.613Z,944.90
2023-11-19T00:24:07.606Z,944.95
2023-11-19T00:24:18.586Z,944.88
2023-11-19T00:24:30.608Z,944.87
2023-11-19T00:24:41.608Z,944.79
2023-11-19T00:24:52.618Z,944.78
2023-11-19T00:25:04.627Z,944.78
2023-11-19T00:25:16.639Z,944.91
2023-11-19T00:25:27.657Z,944.72
2023-11-19T00:25:38.651Z,944.78
2023-11-19T00:25:50.565Z,944.73
2023-11-19T00:26:01.571Z,944.72
2023-11-19T00:26:12.599Z,944.73
2023-11-19T00:26:23.587Z,944.81
2023-11-19T00:26:34.597Z,944.82
2023-11-19T00:26:45.602Z,944.76
2023-11-19T00:26:56.586Z,944.78
2023-11-19T00:27:07.594Z,944.83
2023-11-19T00:27:18.616Z,944.78
2023-11-19T00:27:30.591Z,944.84
2023-11-19T00:27:41.600Z,944.84
2023-11-19T00:27:52.739Z,944.73
2023-11-19T00:28:03.639Z,944.79
2023-11-19T00:28:15.627Z,944.73
2023-11-19T00:28:27.622Z,944.74
2023-11-19T00:28:38.612Z,944.71
2023-11-19T00:28:49.665Z,944.81
2023-11-19T00:29:00.557Z,944.80
2023-11-19T00:29:11.646Z,944.75
2023-11-19T00:29:23.613Z,944.68
2023-11-19T00:29:35.617Z,944.78
2023-11-19T00:29:47.593Z,944.73
2023-11-19T00:29:58.590Z,944.73
2023-11-19T00:30:09.648Z,944.71
2023-11-19T00:30:20.569Z,944.73
2023-11-19T00:30:31.587Z,944.84
2023-11-19T00:30:42.582Z,944.71
2023-11-19T00:30:53.646Z,944.67
2023-11-19T00:31:04.624Z,944.71
2023-11-19T00:31:16.638Z,944.69
2023-11-19T00:31:27.703Z,944.68
2023-11-19T00:31:39.704Z,944.72
2023-11-19T00:31:50.878Z,944.70
2023-11-19T00:32:01.678Z,944.67
2023-11-19T00:32:13.612Z,944.69
2023-11-19T00:32:24.613Z,944.63
2023-11-19T00:32:35.605Z,944.76
2023-11-19T00:32:47.598Z,944.73
2023-11-19T00:32:59.581Z,944.65
2023-11-19T00:33:10.615Z,944.64
2023-11-19T00:33:22.604Z,944.66
2023-11-19T00:33:34.594Z,944.65
2023-11-19T00:33:57.690Z,944.59
2023-11-19T00:34:08.626Z,944.64
2023-11-19T00:34:20.646Z,944.64
2023-11-19T00:34:32.670Z,944.62
2023-11-19T00:34:44.704Z,944.58
2023-11-19T00:34:56.557Z,944.59
2023-11-19T00:35:07.654Z,944.50
2023-11-19T00:35:19.619Z,944.66
2023-11-19T00:35:30.612Z,944.55
2023-11-19T00:35:41.609Z,944.49
2023-11-19T00:35:52.604Z,944.70
2023-11-19T00:36:03.598Z,944.53
2023-11-19T00:36:14.574Z,944.50
2023-11-19T00:36:25.583Z,944.47
2023-11-19T00:36:36.570Z,944.51
2023-11-19T00:36:47.646Z,944.57
2023-11-19T00:36:59.642Z,944.33
2023-11-19T00:37:11.669Z,944.46
2023-11-19T00:37:22.623Z,944.36
2023-11-19T00:37:34.585Z,944.40
2023-11-19T00:37:45.575Z,944.48
2023-11-19T00:37:56.585Z,944.47
2023-11-19T00:38:07.579Z,944.47
2023-11-19T00:38:18.584Z,944.48
2023-11-19T00:38:29.572Z,944.48
2023-11-19T00:38:40.573Z,944.44
2023-11-19T00:38:51.580Z,944.49
2023-11-19T00:39:02.626Z,944.29
2023-11-19T00:39:13.612Z,944.54
2023-11-19T00:39:24.615Z,944.46
2023-11-19T00:39:35.604Z,944.54
2023-11-19T00:39:47.593Z,944.53
2023-11-19T00:39:58.593Z,944.51
2023-11-19T00:40:09.630Z,944.44
2023-11-19T00:40:20.657Z,944.55
2023-11-19T00:40:32.661Z,944.52
2023-11-19T00:40:44.649Z,944.49
2023-11-19T00:40:56.615Z,944.59
2023-11-19T00:41:07.617Z,944.58
2023-11-19T00:41:18.625Z,944.60
2023-11-19T00:41:29.618Z,944.57
2023-11-19T00:41:41.586Z,944.45
2023-11-19T00:41:53.602Z,944.45
2023-11-19T00:42:04.607Z,944.50
2023-11-19T00:42:15.597Z,944.48
2023-11-19T00:42:26.596Z,944.47
2023-11-19T00:42:37.598Z,944.48
2023-11-19T00:42:48.618Z,944.58
2023-11-19T00:43:01.660Z,944.58
2023-11-19T00:43:12.714Z,944.45
2023-11-19T00:43:24.644Z,944.47
2023-11-19T00:43:35.619Z,944.61
2023-11-19T00:43:46.638Z,944.45
2023-11-19T00:43:58.600Z,944.45
2023-11-19T00:44:10.604Z,944.49
2023-11-19T00:44:21.598Z,944.51
2023-11-19T00:44:32.605Z,944.40
2023-11-19T00:44:51.109Z,944.47
2023-11-19T00:44:56.622Z,944.52
2023-11-19T00:45:06.567Z,944.49
2023-11-19T00:45:17.619Z,944.38
2023-11-19T00:45:29.609Z,944.33
2023-11-19T00:45:40.613Z,944.41
2023-11-19T00:45:51.659Z,944.43
2023-11-19T00:46:02.603Z,944.38
2023-11-19T00:46:13.683Z,944.29
2023-11-19T00:46:24.693Z,944.41
2023-11-19T00:46:36.645Z,944.44
2023-11-19T00:46:47.642Z,944.30
2023-11-19T00:46:58.577Z,944.41
2023-11-19T00:47:09.618Z,944.39
2023-11-19T00:47:21.728Z,944.35
2023-11-19T00:47:32.709Z,944.33
2023-11-19T00:47:44.645Z,944.39
2023-11-19T00:47:56.629Z,944.26
2023-11-19T00:48:08.658Z,944.39
2023-11-19T00:48:20.582Z,944.43
2023-11-19T00:48:31.582Z,944.38
2023-11-19T00:48:42.584Z,944.39
2023-11-19T00:48:53.587Z,944.40
2023-11-19T00:49:04.611Z,944.49
2023-11-19T00:49:15.625Z,944.44
2023-11-19T00:49:27.638Z,944.15
2023-11-19T00:49:39.635Z,944.41
2023-11-19T00:49:51.602Z,944.46
2023-11-19T00:50:02.590Z,944.44
2023-11-19T00:50:13.625Z,944.28
2023-11-19T00:50:25.583Z,944.42
2023-11-19T00:50:38.238Z,944.36
2023-11-19T00:50:47.624Z,944.39
2023-11-19T00:50:58.616Z,944.42
2023-11-19T00:51:10.597Z,944.42
2023-11-19T00:51:21.612Z,944.38
2023-11-19T00:51:33.620Z,944.38
2023-11-19T00:51:44.606Z,944.35
2023-11-19T00:51:55.642Z,944.41
2023-11-19T00:52:07.675Z,944.22
2023-11-19T00:52:19.722Z,944.39
2023-11-19T00:52:31.682Z,944.35
2023-11-19T00:52:42.597Z,944.35
2023-11-19T00:52:53.591Z,944.34
2023-11-19T00:53:04.582Z,944.40
2023-11-19T00:53:15.583Z,944.38
2023-11-19T00:53:26.591Z,944.37
2023-11-19T00:53:37.595Z,944.43
2023-11-19T00:53:48.593Z,944.11
2023-11-19T00:53:59.600Z,944.44
2023-11-19T00:54:10.611Z,944.43
2023-11-19T00:54:21.596Z,944.30
2023-11-19T00:54:32.589Z,944.41
2023-11-19T00:54:43.600Z,944.48
2023-11-19T00:54:54.607Z,944.31
2023-11-19T00:55:05.640Z,944.48
2023-11-19T00:55:17.657Z,944.53
2023-11-19T00:55:28.681Z,944.59
2023-11-19T00:55:47.095Z,944.23
2023-11-19T00:55:52.597Z,944.56
2023-11-19T00:56:02.586Z,944.50
2023-11-19T00:56:13.672Z,944.57
2023-11-19T00:56:24.598Z,944.51
2023-11-19T00:56:35.598Z,944.37
2023-11-19T00:56:46.623Z,944.51
2023-11-19T00:56:58.581Z,944.39
2023-11-19T00:57:09.590Z,944.48
2023-11-19T00:57:20.583Z,944.52
2023-11-19T00:57:31.570Z,944.48
2023-11-19T00:57:42.589Z,944.52
2023-11-19T00:57:53.639Z,944.49
2023-11-19T00:58:04.649Z,944.48
2023-11-19T00:58:15.603Z,944.46
2023-11-19T00:58:27.628Z,944.44
2023-11-19T00:58:38.613Z,944.47
2023-11-19T00:58:49.629Z,944.53
2023-11-19T00:59:01.585Z,944.46
2023-11-19T00:59:12.582Z,944.44
2023-11-19T00:59:23.595Z,944.62
2023-11-19T00:59:34.578Z,944.38
2023-11-19T00:59:45.590Z,944.42
2023-11-19T00:59:56.595Z,944.40
2023-11-19T01:00:07.606Z,944.29
2023-11-19T01:00:20.760Z,944.49
2023-11-19T01:00:30.593Z,944.51
2023-11-19T01:00:41.593Z,944.50
2023-11-19T01:00:52.603Z,944.53
2023-11-19T01:01:04.622Z,944.46
2023-11-19T01:01:16.642Z,944.46
2023-11-19T01:01:28.638Z,944.44
2023-11-19T01:01:40.597Z,944.46
2023-11-19T01:01:51.597Z,944.53
2023-11-19T01:02:02.632Z,944.42
2023-11-19T01:02:14.620Z,944.42
2023-11-19T01:02:26.638Z,944.51
2023-11-19T01:02:38.774Z,944.43
2023-11-19T01:02:50.905Z,944.47
2023-11-19T01:03:01.850Z,944.40
2023-11-19T01:03:13.880Z,944.43
2023-11-19T01:03:25.712Z,944.35
2023-11-19T01:03:36.690Z,944.40
2023-11-19T01:03:47.613Z,944.43
2023-11-19T01:03:58.724Z,944.50
2023-11-19T01:04:09.688Z,944.50
2023-11-19T01:04:20.698Z,944.45
2023-11-19T01:04:32.669Z,944.47
2023-11-19T01:04:43.647Z,944.42
2023-11-19T01:04:54.653Z,944.45
2023-11-19T01:05:05.600Z,944.47
2023-11-19T01:05:16.631Z,944.42
2023-11-19T01:05:28.590Z,944.47
2023-11-19T01:05:39.573Z,944.45
2023-11-19T01:05:51.579Z,944.46
2023-11-19T01:06:02.585Z,944.43
2023-11-19T01:06:13.564Z,944.43
2023-11-19T01:06:24.645Z,944.46
2023-11-19T01:06:36.628Z,944.39
2023-11-19T01:06:50.252Z,944.40
2023-11-19T01:06:58.652Z,944.47
2023-11-19T01:07:09.629Z,944.49
2023-11-19T01:07:21.617Z,944.55
2023-11-19T01:07:33.627Z,944.48
2023-11-19T01:07:44.559Z,944.55
2023-11-19T01:07:56.177Z,944.66
2023-11-19T01:08:07.667Z,944.58
2023-11-19T01:08:19.634Z,944.52
2023-11-19T01:08:31.625Z,944.48
2023-11-19T01:08:43.590Z,944.53
2023-11-19T01:08:54.586Z,944.46
2023-11-19T01:09:05.609Z,944.40
2023-11-19T01:09:16.609Z,944.54
2023-11-19T01:09:27.608Z,944.51
2023-11-19T01:09:39.589Z,944.46
2023-11-19T01:09:50.660Z,944.51
2023-11-19T01:10:02.671Z,944.50
2023-11-19T01:10:14.589Z,944.23
2023-11-19T01:10:25.889Z,944.40
2023-11-19T01:10:37.620Z,944.48
2023-11-19T01:10:49.603Z,944.32
2023-11-19T01:11:00.592Z,944.41
2023-11-19T01:11:11.590Z,944.51
2023-11-19T01:11:22.590Z,944.44
2023-11-19T01:11:33.580Z,944.46
2023-11-19T01:11:44.575Z,944.38
2023-11-19T01:11:55.578Z,944.42
2023-11-19T01:12:06.615Z,944.40
2023-11-19T01:12:18.612Z,944.39
2023-11-19T01:12:30.628Z,944.32
2023-11-19T01:12:42.594Z,944.42
2023-11-19T01:12:53.731Z,944.39
2023-11-19T01:13:04.592Z,944.37
2023-11-19T01:13:16.674Z,944.35
2023-11-19T01:13:27.587Z,944.34
2023-11-19T01:13:38.588Z,944.36
2023-11-19T01:13:50.587Z,944.41
2023-11-19T01:14:01.572Z,944.37
2023-11-19T01:14:12.583Z,944.33
2023-11-19T01:14:23.668Z,944.33
2023-11-19T01:14:34.563Z,944.33
2023-11-19T01:14:45.574Z,944.36
2023-11-19T01:14:56.584Z,944.27
2023-11-19T01:15:07.630Z,944.37
2023-11-19T01:15:19.619Z,944.33
2023-11-19T01:15:31.605Z,944.29
2023-11-19T01:15:42.734Z,944.25
2023-11-19T01:15:54.687Z,944.27
2023-11-19T01:16:06.610Z,944.31
2023-11-19T01:16:18.666Z,944.25
2023-11-19T01:16:29.654Z,944.26
2023-11-19T01:16:40.650Z,944.30
2023-11-19T01:16:51.679Z,944.30
2023-11-19T01:17:02.746Z,944.24
2023-11-19T01:17:13.600Z,944.31
2023-11-19T01:17:24.610Z,944.34
2023-11-19T01:17:35.629Z,944.34
2023-11-19T01:17:59.624Z,944.34
2023-11-19T01:18:11.667Z,944.35
2023-11-19T01:18:22.620Z,944.35
2023-11-19T01:18:33.612Z,944.35
2023-11-19T01:18:45.601Z,944.35
2023-11-19T01:19:09.295Z,944.42
2023-11-19T01:19:15.756Z,944.36
2023-11-19T01:19:21.667Z,944.34
2023-11-19T01:19:32.620Z,944.37
2023-11-19T01:19:44.653Z,944.35
2023-11-19T01:19:56.633Z,944.34
2023-11-19T01:20:08.625Z,944.29
2023-11-19T01:20:20.590Z,944.35
2023-11-19T01:20:31.620Z,944.32
2023-11-19T01:20:43.617Z,944.38
2023-11-19T01:20:55.592Z,944.31
2023-11-19T01:21:06.596Z,944.33
2023-11-19T01:21:17.603Z,944.36
2023-11-19T01:21:28.599Z,944.39
2023-11-19T01:21:39.617Z,944.31
2023-11-19T01:21:50.613Z,944.35
2023-11-19T01:22:01.650Z,944.34
2023-11-19T01:22:13.688Z,944.36
2023-11-19T01:22:24.669Z,944.31
2023-11-19T01:22:35.580Z,944.35
2023-11-19T01:22:46.565Z,944.31
2023-11-19T01:22:57.565Z,944.35
2023-11-19T01:23:08.577Z,944.31
2023-11-19T01:23:19.646Z,944.28
2023-11-19T01:23:30.555Z,944.30
2023-11-19T01:23:41.640Z,944.27
2023-11-19T01:23:53.587Z,944.28
2023-11-19T01:24:04.591Z,944.23
2023-11-19T01:24:15.600Z,944.17
2023-11-19T01:24:26.599Z,944.30
2023-11-19T01:24:37.579Z,944.26
2023-11-19T01:24:48.580Z,944.22
2023-11-19T01:25:00.630Z,944.24
2023-11-19T01:25:11.577Z,944.23
2023-11-19T01:25:22.616Z,944.23
2023-11-19T01:25:34.644Z,944.26
2023-11-19T01:25:45.566Z,944.27
2023-11-19T01:25:56.569Z,944.15
2023-11-19T01:26:07.609Z,944.22
2023-11-19T01:26:18.609Z,944.21
2023-11-19T01:26:30.618Z,944.20
2023-11-19T01:26:42.595Z,944.17
2023-11-19T01:26:54.602Z,944.12
2023-11-19T01:27:05.600Z,944.10
2023-11-19T01:27:16.582Z,944.13
2023-11-19T01:27:27.590Z,944.11
2023-11-19T01:27:38.599Z,944.12
2023-11-19T01:27:49.661Z,944.08
2023-11-19T01:28:00.601Z,944.08
2023-11-19T01:28:11.676Z,944.06
2023-11-19T01:28:23.678Z,944.11
2023-11-19T01:28:35.637Z,944.06
2023-11-19T01:28:59.615Z,944.03
2023-11-19T01:29:11.580Z,944.10
2023-11-19T01:29:22.586Z,944.09
2023-11-19T01:29:33.586Z,944.03
2023-11-19T01:29:44.621Z,944.10
2023-11-19T01:29:55.609Z,944.06
2023-11-19T01:30:06.609Z,944.09
2023-11-19T01:30:18.591Z,944.07
2023-11-19T01:30:29.584Z,944.08
2023-11-19T01:30:41.580Z,944.11
2023-11-19T01:30:52.603Z,944.06
2023-11-19T01:31:04.619Z,944.06
2023-11-19T01:31:16.713Z,944.09
2023-11-19T01:31:28.695Z,944.12
2023-11-19T01:31:40.581Z,944.03
2023-11-19T01:31:51.589Z,944.01
2023-11-19T01:32:02.593Z,943.96
2023-11-19T01:32:13.602Z,943.89
2023-11-19T01:32:25.574Z,944.02
2023-11-19T01:32:36.584Z,943.99
2023-11-19T01:32:47.587Z,943.95
2023-11-19T01:32:58.658Z,943.96
2023-11-19T01:33:09.630Z,943.95
2023-11-19T01:33:20.558Z,943.94
2023-11-19T01:33:31.578Z,943.98
2023-11-19T01:33:42.633Z,943.99
2023-11-19T01:33:54.738Z,944.04
2023-11-19T01:34:06.662Z,943.98
2023-11-19T01:34:18.678Z,943.99
2023-11-19T01:34:30.620Z,943.98
2023-11-19T01:34:41.646Z,943.95
2023-11-19T01:34:52.682Z,944.01
2023-11-19T01:35:04.643Z,943.97
2023-11-19T01:35:15.554Z,943.97
2023-11-19T01:35:28.290Z,943.93
2023-11-19T01:35:37.597Z,943.94
2023-11-19T01:35:49.657Z,943.96
2023-11-19T01:36:01.610Z,944.00
2023-11-19T01:36:13.575Z,944.01
2023-11-19T01:36:24.580Z,943.98
2023-11-19T01:36:35.576Z,944.00
2023-11-19T01:36:46.619Z,943.98
2023-11-19T01:36:58.657Z,943.97
2023-11-19T01:37:09.645Z,943.95
2023-11-19T01:37:20.670Z,943.96
2023-11-19T01:37:32.705Z,943.93
2023-11-19T01:37:44.604Z,943.95
2023-11-19T01:37:56.586Z,943.97
2023-11-19T01:38:07.588Z,943.95
2023-11-19T01:38:18.594Z,943.92
2023-11-19T01:38:29.577Z,943.91
2023-11-19T01:38:40.575Z,943.88
2023-11-19T01:38:51.608Z,943.94
2023-11-19T01:39:03.580Z,943.90
2023-11-19T01:39:14.566Z,943.84
2023-11-19T01:39:25.580Z,943.93
2023-11-19T01:39:36.609Z,943.89
2023-11-19T01:39:58.875Z,943.84
2023-11-19T01:40:00.613Z,943.91
2023-11-19T01:40:10.643Z,943.92
2023-11-19T01:40:22.663Z,943.92
2023-11-19T01:40:34.693Z,943.90
2023-11-19T01:40:46.588Z,943.96
2023-11-19T01:40:57.585Z,943.90
2023-11-19T01:41:08.611Z,943.84
2023-11-19T01:41:19.629Z,943.83
2023-11-19T01:41:31.576Z,943.84
2023-11-19T01:41:42.583Z,943.81
2023-11-19T01:41:53.656Z,943.80
2023-11-19T01:42:04.643Z,943.81
2023-11-19T01:42:16.596Z,943.87
2023-11-19T01:42:27.598Z,943.84
2023-11-19T01:42:38.596Z,943.89
2023-11-19T01:42:49.586Z,943.83
2023-11-19T01:43:00.583Z,943.80
2023-11-19T01:43:11.594Z,943.77
2023-11-19T01:43:22.625Z,943.77
2023-11-19T01:43:34.597Z,943.74
2023-11-19T01:43:45.587Z,943.77
2023-11-19T01:43:57.590Z,943.72
2023-11-19T01:44:08.562Z,943.76
2023-11-19T01:44:19.554Z,943.77
2023-11-19T01:44:30.582Z,943.75
2023-11-19T01:44:41.570Z,943.76
2023-11-19T01:44:52.569Z,943.73
2023-11-19T01:45:03.582Z,943.72
2023-11-19T01:45:14.599Z,943.73
2023-11-19T01:45:26.671Z,943.68
2023-11-19T01:45:38.638Z,943.72
2023-11-19T01:45:50.621Z,943.73
2023-11-19T01:46:02.677Z,943.80
2023-11-19T01:46:13.656Z,943.78
2023-11-19T01:46:24.672Z,943.82
2023-11-19T01:46:35.642Z,943.78
2023-11-19T01:46:46.813Z,943.70
2023-11-19T01:46:58.702Z,943.74
2023-11-19T01:47:09.609Z,943.76
2023-11-19T01:47:20.609Z,943.79
2023-11-19T01:47:31.623Z,943.75
2023-11-19T01:47:43.616Z,943.73
2023-11-19T01:47:54.634Z,943.77
2023-11-19T01:48:06.625Z,943.72
2023-11-19T01:48:18.610Z,943.72
2023-11-19T01:48:29.589Z,943.77
2023-11-19T01:48:40.574Z,943.72
2023-11-19T01:48:51.722Z,943.70
2023-11-19T01:49:02.633Z,943.78
2023-11-19T01:49:14.641Z,943.76
2023-11-19T01:49:25.606Z,943.73
2023-11-19T01:49:36.614Z,943.73
2023-11-19T01:49:47.595Z,943.62
2023-11-19T01:49:59.578Z,943.78
2023-11-19T01:50:10.683Z,943.75
2023-11-19T01:50:21.584Z,943.73
2023-11-19T01:50:32.581Z,943.71
2023-11-19T01:50:43.597Z,943.60
2023-11-19T01:51:02.606Z,943.62
2023-11-19T01:51:06.608Z,943.64
2023-11-19T01:51:17.631Z,943.66
2023-11-19T01:51:29.623Z,943.72
2023-11-19T01:51:41.593Z,943.68
2023-11-19T01:51:52.603Z,943.56
2023-11-19T01:52:03.614Z,943.72
2023-11-19T01:52:15.654Z,943.67
2023-11-19T01:52:26.670Z,943.65
2023-11-19T01:52:37.603Z,943.64
2023-11-19T01:52:48.611Z,943.56
2023-11-19T01:52:59.608Z,943.56
2023-11-19T01:53:10.611Z,943.57
2023-11-19T01:53:21.604Z,943.67
2023-11-19T01:53:33.585Z,943.59
2023-11-19T01:53:44.578Z,943.61
2023-11-19T01:53:55.579Z,943.59
2023-11-19T01:54:07.577Z,943.57
2023-11-19T01:54:18.578Z,943.62
2023-11-19T01:54:29.568Z,943.59
2023-11-19T01:54:40.576Z,943.58
2023-11-19T01:54:51.572Z,943.59
2023-11-19T01:55:02.615Z,943.62
2023-11-19T01:55:14.637Z,943.63
2023-11-19T01:55:26.655Z,943.59
2023-11-19T01:55:37.643Z,943.54
2023-11-19T01:55:48.645Z,943.53
2023-11-19T01:56:00.643Z,943.62
2023-11-19T01:56:12.605Z,943.62
2023-11-19T01:56:23.603Z,943.63
2023-11-19T01:56:34.636Z,943.61
2023-11-19T01:56:46.608Z,943.59
2023-11-19T01:56:57.601Z,943.60
2023-11-19T01:57:08.592Z,943.58
2023-11-19T01:57:19.595Z,943.66
2023-11-19T01:57:30.597Z,943.56
2023-11-19T01:57:41.595Z,943.59
2023-11-19T01:57:52.598Z,943.58
2023-11-19T01:58:03.654Z,943.59
2023-11-19T01:58:14.615Z,943.58
2023-11-19T01:58:26.603Z,943.57
2023-11-19T01:58:37.565Z,943.56
2023-11-19T01:58:48.554Z,943.54
2023-11-19T01:58:59.548Z,943.58
2023-11-19T01:59:10.652Z,943.48
2023-11-19T01:59:22.630Z,943.62
2023-11-19T01:59:34.594Z,943.54
2023-11-19T01:59:45.583Z,943.56
2023-11-19T01:59:56.595Z,943.56
2023-11-19T02:00:07.602Z,943.60
2023-11-19T02:00:18.604Z,943.59
2023-11-19T02:00:29.614Z,943.61
2023-11-19T02:00:41.584Z,943.53
2023-11-19T02:00:52.651Z,943.54
2023-11-19T02:01:03.606Z,943.55
2023-11-19T02:01:14.727Z,943.64
2023-11-19T02:01:26.790Z,943.55
2023-11-19T02:01:38.717Z,943.51
2023-11-19T02:02:00.347Z,943.55
2023-11-19T02:02:02.029Z,943.53
2023-11-19T02:02:11.684Z,943.51
2023-11-19T02:02:23.915Z,943.56
2023-11-19T02:02:34.736Z,943.60
2023-11-19T02:02:45.972Z,943.53
2023-11-19T02:02:57.759Z,943.49
2023-11-19T02:03:09.760Z,943.53
2023-11-19T02:03:20.694Z,943.54
2023-11-19T02:03:31.712Z,943.58
2023-11-19T02:03:42.648Z,943.54
2023-11-19T02:03:53.993Z,943.54
2023-11-19T02:04:05.706Z,943.45
2023-11-19T02:04:16.730Z,943.60
2023-11-19T02:04:27.803Z,943.54
2023-11-19T02:04:38.718Z,943.61
2023-11-19T02:04:50.647Z,943.50
2023-11-19T02:05:02.639Z,943.50
2023-11-19T02:05:14.653Z,943.54
2023-11-19T02:05:25.579Z,943.52
2023-11-19T02:05:36.566Z,943.47
2023-11-19T02:05:47.561Z,943.60
2023-11-19T02:05:58.602Z,943.64
2023-11-19T02:06:09.607Z,943.52
2023-11-19T02:06:20.620Z,943.42
2023-11-19T02:06:32.588Z,943.54
2023-11-19T02:06:43.586Z,943.44
2023-11-19T02:06:55.605Z,943.40
2023-11-19T02:07:06.618Z,943.49
2023-11-19T02:07:18.623Z,943.48
2023-11-19T02:07:29.555Z,943.40
2023-11-19T02:07:40.648Z,943.51
2023-11-19T02:07:52.632Z,943.48
2023-11-19T02:08:04.608Z,943.42
2023-11-19T02:08:16.566Z,943.46
2023-11-19T02:08:27.577Z,943.42
2023-11-19T02:08:38.601Z,943.45
2023-11-19T02:08:49.643Z,943.33
2023-11-19T02:09:01.593Z,943.46
2023-11-19T02:09:12.588Z,943.42
2023-11-19T02:09:23.574Z,943.48
2023-11-19T02:09:34.580Z,943.49
2023-11-19T02:09:45.625Z,943.51
2023-11-19T02:09:57.635Z,943.53
2023-11-19T02:10:09.670Z,943.48
2023-11-19T02:10:21.621Z,943.47
2023-11-19T02:10:33.597Z,943.32
2023-11-19T02:10:44.629Z,943.46
2023-11-19T02:10:55.607Z,943.55
2023-11-19T02:11:06.608Z,943.45
2023-11-19T02:11:17.593Z,943.50
2023-11-19T02:11:28.584Z,943.48
2023-11-19T02:11:39.574Z,943.58
2023-11-19T02:11:50.556Z,943.45
2023-11-19T02:12:01.596Z,943.26
2023-11-19T02:12:12.591Z,943.47
2023-11-19T02:12:23.585Z,943.45
2023-11-19T02:12:34.604Z,943.47
2023-11-19T02:12:46.590Z,943.46
2023-11-19T02:13:06.264Z,943.50
2023-11-19T02:13:10.613Z,943.44
2023-11-19T02:13:20.568Z,943.43
2023-11-19T02:13:31.572Z,943.43
2023-11-19T02:13:43.619Z,943.44
2023-11-19T02:13:54.610Z,943.44
2023-11-19T02:14:05.607Z,943.40
2023-11-19T02:14:16.664Z,943.33
2023-11-19T02:14:28.607Z,943.42
2023-11-19T02:14:39.604Z,943.50
2023-11-19T02:14:50.611Z,943.28
2023-11-19T02:15:02.614Z,943.40
2023-11-19T02:15:13.635Z,943.41
2023-11-19T02:15:25.614Z,943.38
2023-11-19T02:15:37.629Z,943.42
2023-11-19T02:15:49.657Z,943.41
2023-11-19T02:16:00.694Z,943.51
2023-11-19T02:16:12.853Z,943.32
2023-11-19T02:16:24.641Z,943.41
2023-11-19T02:16:36.739Z,943.38
2023-11-19T02:16:48.647Z,943.36
2023-11-19T02:17:00.603Z,943.24
2023-11-19T02:17:11.598Z,943.28
2023-11-19T02:17:22.596Z,943.36
2023-11-19T02:17:33.658Z,943.43
2023-11-19T02:17:45.657Z,943.28
2023-11-19T02:17:57.630Z,943.38
2023-11-19T02:18:09.596Z,943.36
2023-11-19T02:18:20.603Z,943.35
2023-11-19T02:18:31.681Z,943.42
2023-11-19T02:18:42.609Z,943.46
2023-11-19T02:18:53.623Z,943.50
2023-11-19T02:19:05.657Z,943.44
2023-11-19T02:19:16.638Z,943.46
2023-11-19T02:19:28.672Z,943.48
2023-11-19T02:19:39.605Z,943.48
2023-11-19T02:19:50.600Z,943.48
2023-11-19T02:20:01.594Z,943.52
2023-11-19T02:20:13.804Z,943.32
2023-11-19T02:20:24.647Z,943.51
2023-11-19T02:20:36.622Z,943.41
2023-11-19T02:20:50.924Z,943.49
2023-11-19T02:21:00.601Z,943.45
2023-11-19T02:21:11.589Z,943.53
2023-11-19T02:21:23.595Z,943.45
2023-11-19T02:21:34.593Z,943.41
2023-11-19T02:21:45.580Z,943.43
2023-11-19T02:21:56.601Z,943.45
2023-11-19T02:22:07.676Z,943.44
2023-11-19T02:22:19.706Z,943.45